sensor_id;sensor_type;location;lat;lon;timestamp;P1;durP1;ratioP1;P2;durP2;ratioP2
54384;SDS011;40284;52.878;5.998;2023-02-15T00:02:25;57.85;;;37.97;;
54384;SDS011;40284;52.878;5.998;2023-02-15T00:04:51;63.42;;;40.63;;
54384;SDS011;40284;52.878;5.998;2023-02-15T00:07:18;58.42;;;39.72;;
54384;SDS011;40284;52.878;5.998;2023-02-15T00:09:45;64.32;;;39.33;;
54384;SDS011;40284;52.878;5.998;2023-02-15T00:12:11;58.50;;;38.60;;
54384;SDS011;40284;52.878;5.998;2023-02-15T00:14:37;59.72;;;40.30;;
54384;SDS011;40284;52.878;5.998;2023-02-15T00:17:03;62.17;;;40.35;;
54384;SDS011;40284;52.878;5.998;2023-02-15T00:19:30;59.42;;;38.47;;
54384;SDS011;40284;52.878;5.998;2023-02-15T00:21:56;57.53;;;39.58;;
54384;SDS011;40284;52.878;5.998;2023-02-15T00:24:22;58.45;;;37.95;;
54384;SDS011;40284;52.878;5.998;2023-02-15T00:26:48;54.10;;;36.92;;
54384;SDS011;40284;52.878;5.998;2023-02-15T00:29:15;63.25;;;38.70;;
54384;SDS011;40284;52.878;5.998;2023-02-15T00:31:41;56.03;;;35.95;;
54384;SDS011;40284;52.878;5.998;2023-02-15T00:34:15;54.63;;;36.75;;
54384;SDS011;40284;52.878;5.998;2023-02-15T00:36:41;54.53;;;35.78;;
54384;SDS011;40284;52.878;5.998;2023-02-15T00:39:07;52.92;;;36.85;;
54384;SDS011;40284;52.878;5.998;2023-02-15T00:41:33;53.00;;;36.22;;
54384;SDS011;40284;52.878;5.998;2023-02-15T00:43:59;59.33;;;37.42;;
54384;SDS011;40284;52.878;5.998;2023-02-15T00:46:25;53.80;;;35.53;;
54384;SDS011;40284;52.878;5.998;2023-02-15T00:48:51;58.30;;;37.65;;
54384;SDS011;40284;52.878;5.998;2023-02-15T00:51:17;54.55;;;35.47;;
54384;SDS011;40284;52.878;5.998;2023-02-15T00:53:45;49.30;;;34.58;;
54384;SDS011;40284;52.878;5.998;2023-02-15T00:56:11;52.90;;;35.45;;
54384;SDS011;40284;52.878;5.998;2023-02-15T00:58:37;56.55;;;36.45;;
54384;SDS011;40284;52.878;5.998;2023-02-15T01:01:04;54.05;;;35.35;;
54384;SDS011;40284;52.878;5.998;2023-02-15T01:03:31;53.80;;;36.05;;
54384;SDS011;40284;52.878;5.998;2023-02-15T01:05:57;56.50;;;35.78;;
54384;SDS011;40284;52.878;5.998;2023-02-15T01:08:23;51.38;;;35.70;;
54384;SDS011;40284;52.878;5.998;2023-02-15T01:10:49;52.97;;;36.70;;
54384;SDS011;40284;52.878;5.998;2023-02-15T01:13:15;54.33;;;34.55;;
54384;SDS011;40284;52.878;5.998;2023-02-15T01:15:42;50.15;;;34.42;;
54384;SDS011;40284;52.878;5.998;2023-02-15T01:18:08;55.10;;;35.85;;
54384;SDS011;40284;52.878;5.998;2023-02-15T01:20:35;55.10;;;35.47;;
54384;SDS011;40284;52.878;5.998;2023-02-15T01:23:04;54.30;;;34.92;;
54384;SDS011;40284;52.878;5.998;2023-02-15T01:25:30;57.95;;;37.17;;
54384;SDS011;40284;52.878;5.998;2023-02-15T01:27:56;58.00;;;38.45;;
54384;SDS011;40284;52.878;5.998;2023-02-15T01:30:22;58.28;;;37.45;;
54384;SDS011;40284;52.878;5.998;2023-02-15T01:32:48;52.90;;;35.20;;
54384;SDS011;40284;52.878;5.998;2023-02-15T01:35:14;56.67;;;37.65;;
54384;SDS011;40284;52.878;5.998;2023-02-15T01:37:40;52.28;;;35.10;;
54384;SDS011;40284;52.878;5.998;2023-02-15T01:40:08;54.78;;;35.78;;
54384;SDS011;40284;52.878;5.998;2023-02-15T01:42:34;54.85;;;35.75;;
54384;SDS011;40284;52.878;5.998;2023-02-15T01:47:51;54.85;;;35.72;;
54384;SDS011;40284;52.878;5.998;2023-02-15T01:50:29;50.35;;;34.38;;
54384;SDS011;40284;52.878;5.998;2023-02-15T01:53:07;52.00;;;34.17;;
54384;SDS011;40284;52.878;5.998;2023-02-15T01:55:39;54.20;;;34.42;;
54384;SDS011;40284;52.878;5.998;2023-02-15T01:58:05;48.97;;;32.67;;
54384;SDS011;40284;52.878;5.998;2023-02-15T02:00:32;56.40;;;36.85;;
54384;SDS011;40284;52.878;5.998;2023-02-15T02:02:59;56.47;;;37.47;;
54384;SDS011;40284;52.878;5.998;2023-02-15T02:05:26;53.90;;;36.08;;
54384;SDS011;40284;52.878;5.998;2023-02-15T02:07:53;55.08;;;34.90;;
54384;SDS011;40284;52.878;5.998;2023-02-15T02:10:21;58.83;;;37.25;;
54384;SDS011;40284;52.878;5.998;2023-02-15T02:12:48;53.38;;;35.38;;
54384;SDS011;40284;52.878;5.998;2023-02-15T02:15:15;49.45;;;32.97;;
54384;SDS011;40284;52.878;5.998;2023-02-15T02:23:16;47.65;;;32.90;;
54384;SDS011;40284;52.878;5.998;2023-02-15T02:30:48;52.80;;;33.78;;
54384;SDS011;40284;52.878;5.998;2023-02-15T02:41:12;48.45;;;32.20;;
54384;SDS011;40284;52.878;5.998;2023-02-15T02:43:45;46.63;;;31.55;;
54384;SDS011;40284;52.878;5.998;2023-02-15T02:46:15;50.75;;;34.70;;
54384;SDS011;40284;52.878;5.998;2023-02-15T02:48:44;45.78;;;31.17;;
54384;SDS011;40284;52.878;5.998;2023-02-15T02:51:10;51.55;;;34.28;;
54384;SDS011;40284;52.878;5.998;2023-02-15T02:53:36;48.35;;;34.25;;
54384;SDS011;40284;52.878;5.998;2023-02-15T02:56:06;44.83;;;32.33;;
54384;SDS011;40284;52.878;5.998;2023-02-15T02:58:37;52.97;;;35.50;;
54384;SDS011;40284;52.878;5.998;2023-02-15T03:01:27;57.75;;;36.90;;
54384;SDS011;40284;52.878;5.998;2023-02-15T03:03:56;52.65;;;36.50;;
54384;SDS011;40284;52.878;5.998;2023-02-15T03:06:36;50.78;;;35.40;;
54384;SDS011;40284;52.878;5.998;2023-02-15T03:09:06;55.25;;;36.08;;
54384;SDS011;40284;52.878;5.998;2023-02-15T03:11:39;57.05;;;37.63;;
54384;SDS011;40284;52.878;5.998;2023-02-15T03:14:05;55.38;;;38.30;;
54384;SDS011;40284;52.878;5.998;2023-02-15T03:16:31;54.83;;;38.22;;
54384;SDS011;40284;52.878;5.998;2023-02-15T03:24:15;61.80;;;39.42;;
54384;SDS011;40284;52.878;5.998;2023-02-15T03:26:43;62.25;;;39.85;;
54384;SDS011;40284;52.878;5.998;2023-02-15T03:29:11;69.07;;;43.05;;
54384;SDS011;40284;52.878;5.998;2023-02-15T03:31:40;69.35;;;42.85;;
54384;SDS011;40284;52.878;5.998;2023-02-15T03:34:08;64.65;;;41.28;;
54384;SDS011;40284;52.878;5.998;2023-02-15T03:36:46;66.57;;;41.50;;
54384;SDS011;40284;52.878;5.998;2023-02-15T03:41:40;70.82;;;44.42;;
54384;SDS011;40284;52.878;5.998;2023-02-15T03:44:16;70.00;;;43.10;;
54384;SDS011;40284;52.878;5.998;2023-02-15T03:46:49;67.40;;;42.15;;
54384;SDS011;40284;52.878;5.998;2023-02-15T03:49:24;74.22;;;44.97;;
54384;SDS011;40284;52.878;5.998;2023-02-15T03:51:51;67.45;;;42.25;;
54384;SDS011;40284;52.878;5.998;2023-02-15T03:54:25;63.60;;;42.03;;
54384;SDS011;40284;52.878;5.998;2023-02-15T03:57:11;63.58;;;42.83;;
54384;SDS011;40284;52.878;5.998;2023-02-15T03:59:57;58.72;;;39.67;;
54384;SDS011;40284;52.878;5.998;2023-02-15T04:05:17;65.18;;;41.17;;
54384;SDS011;40284;52.878;5.998;2023-02-15T04:07:43;64.03;;;40.78;;
54384;SDS011;40284;52.878;5.998;2023-02-15T04:10:09;67.22;;;42.83;;
54384;SDS011;40284;52.878;5.998;2023-02-15T04:12:54;62.45;;;41.22;;
54384;SDS011;40284;52.878;5.998;2023-02-15T04:15:20;64.70;;;42.63;;
54384;SDS011;40284;52.878;5.998;2023-02-15T04:18:04;63.55;;;40.45;;
54384;SDS011;40284;52.878;5.998;2023-02-15T04:20:31;69.63;;;43.30;;
54384;SDS011;40284;52.878;5.998;2023-02-15T04:23:15;63.90;;;41.92;;
54384;SDS011;40284;52.878;5.998;2023-02-15T04:26:03;65.35;;;41.53;;
54384;SDS011;40284;52.878;5.998;2023-02-15T04:28:29;66.10;;;41.33;;
54384;SDS011;40284;52.878;5.998;2023-02-15T04:30:56;69.72;;;44.47;;
54384;SDS011;40284;52.878;5.998;2023-02-15T04:33:22;69.95;;;45.13;;
54384;SDS011;40284;52.878;5.998;2023-02-15T04:35:48;76.80;;;46.13;;
54384;SDS011;40284;52.878;5.998;2023-02-15T04:38:14;87.32;;;49.80;;
54384;SDS011;40284;52.878;5.998;2023-02-15T04:40:40;74.63;;;48.35;;
54384;SDS011;40284;52.878;5.998;2023-02-15T04:43:06;69.35;;;45.72;;
54384;SDS011;40284;52.878;5.998;2023-02-15T04:45:32;85.95;;;51.05;;
54384;SDS011;40284;52.878;5.998;2023-02-15T04:47:58;81.90;;;49.35;;
54384;SDS011;40284;52.878;5.998;2023-02-15T04:50:24;86.45;;;53.05;;
54384;SDS011;40284;52.878;5.998;2023-02-15T04:52:50;89.13;;;48.47;;
54384;SDS011;40284;52.878;5.998;2023-02-15T04:55:16;84.40;;;50.67;;
54384;SDS011;40284;52.878;5.998;2023-02-15T04:57:42;77.43;;;49.67;;
54384;SDS011;40284;52.878;5.998;2023-02-15T05:00:09;89.18;;;50.33;;
54384;SDS011;40284;52.878;5.998;2023-02-15T05:02:35;80.85;;;49.55;;
54384;SDS011;40284;52.878;5.998;2023-02-15T05:05:01;85.82;;;49.67;;
54384;SDS011;40284;52.878;5.998;2023-02-15T05:07:27;89.05;;;50.95;;
54384;SDS011;40284;52.878;5.998;2023-02-15T05:09:53;91.88;;;52.95;;
54384;SDS011;40284;52.878;5.998;2023-02-15T05:12:19;84.95;;;50.13;;
54384;SDS011;40284;52.878;5.998;2023-02-15T05:14:45;82.97;;;51.05;;
54384;SDS011;40284;52.878;5.998;2023-02-15T05:17:11;78.30;;;49.22;;
54384;SDS011;40284;52.878;5.998;2023-02-15T05:19:37;82.93;;;51.28;;
54384;SDS011;40284;52.878;5.998;2023-02-15T05:22:03;89.88;;;51.05;;
54384;SDS011;40284;52.878;5.998;2023-02-15T05:24:29;93.50;;;50.83;;
54384;SDS011;40284;52.878;5.998;2023-02-15T05:27:14;91.80;;;52.97;;
54384;SDS011;40284;52.878;5.998;2023-02-15T05:29:59;82.95;;;50.85;;
54384;SDS011;40284;52.878;5.998;2023-02-15T05:32:25;85.63;;;50.50;;
54384;SDS011;40284;52.878;5.998;2023-02-15T05:34:51;87.38;;;51.63;;
54384;SDS011;40284;52.878;5.998;2023-02-15T05:37:17;84.32;;;50.33;;
54384;SDS011;40284;52.878;5.998;2023-02-15T05:39:43;94.70;;;52.03;;
54384;SDS011;40284;52.878;5.998;2023-02-15T05:42:09;77.53;;;47.58;;
54384;SDS011;40284;52.878;5.998;2023-02-15T05:44:38;83.47;;;50.40;;
54384;SDS011;40284;52.878;5.998;2023-02-15T05:47:04;82.63;;;49.38;;
54384;SDS011;40284;52.878;5.998;2023-02-15T05:49:32;88.43;;;50.75;;
54384;SDS011;40284;52.878;5.998;2023-02-15T05:51:58;82.45;;;48.40;;
54384;SDS011;40284;52.878;5.998;2023-02-15T05:54:24;74.82;;;45.92;;
54384;SDS011;40284;52.878;5.998;2023-02-15T05:56:50;80.90;;;44.42;;
54384;SDS011;40284;52.878;5.998;2023-02-15T05:59:16;77.82;;;44.97;;
54384;SDS011;40284;52.878;5.998;2023-02-15T06:01:42;74.75;;;44.58;;
54384;SDS011;40284;52.878;5.998;2023-02-15T06:04:08;68.03;;;43.40;;
54384;SDS011;40284;52.878;5.998;2023-02-15T06:06:34;68.10;;;41.47;;
54384;SDS011;40284;52.878;5.998;2023-02-15T06:09:00;64.90;;;40.55;;
54384;SDS011;40284;52.878;5.998;2023-02-15T06:11:26;63.83;;;42.58;;
54384;SDS011;40284;52.878;5.998;2023-02-15T06:13:52;67.80;;;41.60;;
54384;SDS011;40284;52.878;5.998;2023-02-15T06:16:18;63.65;;;40.45;;
54384;SDS011;40284;52.878;5.998;2023-02-15T06:18:45;65.13;;;39.35;;
54384;SDS011;40284;52.878;5.998;2023-02-15T06:21:11;65.32;;;40.97;;
54384;SDS011;40284;52.878;5.998;2023-02-15T06:23:37;67.97;;;42.53;;
54384;SDS011;40284;52.878;5.998;2023-02-15T06:26:03;72.97;;;43.45;;
54384;SDS011;40284;52.878;5.998;2023-02-15T06:28:29;58.88;;;38.35;;
54384;SDS011;40284;52.878;5.998;2023-02-15T06:30:55;67.68;;;40.30;;
54384;SDS011;40284;52.878;5.998;2023-02-15T06:33:21;61.30;;;37.60;;
54384;SDS011;40284;52.878;5.998;2023-02-15T06:35:47;68.22;;;40.80;;
54384;SDS011;40284;52.878;5.998;2023-02-15T06:38:13;71.50;;;40.25;;
54384;SDS011;40284;52.878;5.998;2023-02-15T06:40:39;64.78;;;38.20;;
54384;SDS011;40284;52.878;5.998;2023-02-15T06:43:05;61.03;;;37.97;;
54384;SDS011;40284;52.878;5.998;2023-02-15T06:45:31;68.00;;;38.60;;
54384;SDS011;40284;52.878;5.998;2023-02-15T06:47:57;65.18;;;37.13;;
54384;SDS011;40284;52.878;5.998;2023-02-15T06:50:24;65.43;;;37.75;;
54384;SDS011;40284;52.878;5.998;2023-02-15T06:52:54;51.83;;;34.60;;
54384;SDS011;40284;52.878;5.998;2023-02-15T06:55:20;53.10;;;35.47;;
54384;SDS011;40284;52.878;5.998;2023-02-15T06:57:46;62.15;;;37.90;;
54384;SDS011;40284;52.878;5.998;2023-02-15T07:00:13;59.05;;;34.92;;
54384;SDS011;40284;52.878;5.998;2023-02-15T07:02:39;56.15;;;35.45;;
54384;SDS011;40284;52.878;5.998;2023-02-15T07:05:05;56.83;;;35.00;;
54384;SDS011;40284;52.878;5.998;2023-02-15T07:07:31;58.33;;;34.33;;
54384;SDS011;40284;52.878;5.998;2023-02-15T07:09:57;54.35;;;35.78;;
54384;SDS011;40284;52.878;5.998;2023-02-15T07:12:23;53.65;;;34.40;;
54384;SDS011;40284;52.878;5.998;2023-02-15T07:15:10;53.58;;;35.20;;
54384;SDS011;40284;52.878;5.998;2023-02-15T07:17:36;57.05;;;34.53;;
54384;SDS011;40284;52.878;5.998;2023-02-15T07:20:06;59.45;;;34.15;;
54384;SDS011;40284;52.878;5.998;2023-02-15T07:22:33;57.45;;;36.15;;
54384;SDS011;40284;52.878;5.998;2023-02-15T07:25:01;58.47;;;35.15;;
54384;SDS011;40284;52.878;5.998;2023-02-15T07:27:27;51.63;;;34.88;;
54384;SDS011;40284;52.878;5.998;2023-02-15T07:29:53;56.45;;;34.88;;
54384;SDS011;40284;52.878;5.998;2023-02-15T07:32:19;48.72;;;31.35;;
54384;SDS011;40284;52.878;5.998;2023-02-15T07:34:45;52.45;;;33.85;;
54384;SDS011;40284;52.878;5.998;2023-02-15T07:37:11;54.05;;;33.35;;
54384;SDS011;40284;52.878;5.998;2023-02-15T07:39:37;50.97;;;33.40;;
54384;SDS011;40284;52.878;5.998;2023-02-15T07:42:03;57.70;;;33.70;;
54384;SDS011;40284;52.878;5.998;2023-02-15T07:44:30;45.95;;;31.10;;
54384;SDS011;40284;52.878;5.998;2023-02-15T07:46:56;54.83;;;33.80;;
54384;SDS011;40284;52.878;5.998;2023-02-15T07:49:22;52.53;;;32.33;;
54384;SDS011;40284;52.878;5.998;2023-02-15T07:51:48;61.08;;;35.33;;
54384;SDS011;40284;52.878;5.998;2023-02-15T07:54:14;53.13;;;34.35;;
54384;SDS011;40284;52.878;5.998;2023-02-15T07:56:40;55.40;;;34.28;;
54384;SDS011;40284;52.878;5.998;2023-02-15T07:59:06;52.72;;;32.05;;
54384;SDS011;40284;52.878;5.998;2023-02-15T08:01:34;48.72;;;32.28;;
54384;SDS011;40284;52.878;5.998;2023-02-15T08:04:01;55.05;;;34.22;;
54384;SDS011;40284;52.878;5.998;2023-02-15T08:06:28;49.08;;;32.47;;
54384;SDS011;40284;52.878;5.998;2023-02-15T08:08:54;53.83;;;34.95;;
54384;SDS011;40284;52.878;5.998;2023-02-15T08:11:21;52.17;;;33.72;;
54384;SDS011;40284;52.878;5.998;2023-02-15T08:13:58;56.05;;;31.60;;
54384;SDS011;40284;52.878;5.998;2023-02-15T08:16:40;51.47;;;33.20;;
54384;SDS011;40284;52.878;5.998;2023-02-15T08:19:10;54.45;;;33.17;;
54384;SDS011;40284;52.878;5.998;2023-02-15T08:21:37;54.65;;;35.50;;
54384;SDS011;40284;52.878;5.998;2023-02-15T08:24:04;59.45;;;34.47;;
54384;SDS011;40284;52.878;5.998;2023-02-15T08:26:30;56.95;;;35.22;;
54384;SDS011;40284;52.878;5.998;2023-02-15T08:28:57;57.55;;;35.22;;
54384;SDS011;40284;52.878;5.998;2023-02-15T08:31:24;53.42;;;35.42;;
54384;SDS011;40284;52.878;5.998;2023-02-15T08:33:50;54.20;;;35.30;;
54384;SDS011;40284;52.878;5.998;2023-02-15T08:36:18;57.60;;;34.38;;
54384;SDS011;40284;52.878;5.998;2023-02-15T08:38:44;63.55;;;36.38;;
54384;SDS011;40284;52.878;5.998;2023-02-15T08:41:18;59.60;;;36.17;;
54384;SDS011;40284;52.878;5.998;2023-02-15T08:43:44;61.83;;;36.33;;
54384;SDS011;40284;52.878;5.998;2023-02-15T08:46:12;63.17;;;38.75;;
54384;SDS011;40284;52.878;5.998;2023-02-15T08:48:39;63.22;;;37.92;;
54384;SDS011;40284;52.878;5.998;2023-02-15T08:51:15;63.83;;;38.80;;
54384;SDS011;40284;52.878;5.998;2023-02-15T08:53:43;63.45;;;37.03;;
54384;SDS011;40284;52.878;5.998;2023-02-15T08:56:10;65.00;;;38.25;;
54384;SDS011;40284;52.878;5.998;2023-02-15T08:58:36;59.13;;;37.20;;
54384;SDS011;40284;52.878;5.998;2023-02-15T09:01:12;62.67;;;38.88;;
54384;SDS011;40284;52.878;5.998;2023-02-15T09:03:39;60.83;;;39.03;;
54384;SDS011;40284;52.878;5.998;2023-02-15T09:06:05;64.57;;;37.72;;
54384;SDS011;40284;52.878;5.998;2023-02-15T09:08:31;64.75;;;39.42;;
54384;SDS011;40284;52.878;5.998;2023-02-15T09:11:32;68.05;;;41.97;;
54384;SDS011;40284;52.878;5.998;2023-02-15T09:16:19;66.18;;;40.45;;
54384;SDS011;40284;52.878;5.998;2023-02-15T09:18:46;70.88;;;40.50;;
54384;SDS011;40284;52.878;5.998;2023-02-15T09:21:16;66.47;;;39.90;;
54384;SDS011;40284;52.878;5.998;2023-02-15T09:23:42;67.80;;;40.35;;
54384;SDS011;40284;52.878;5.998;2023-02-15T09:26:10;73.05;;;42.70;;
54384;SDS011;40284;52.878;5.998;2023-02-15T09:28:37;65.28;;;40.85;;
54384;SDS011;40284;52.878;5.998;2023-02-15T09:33:39;68.30;;;43.20;;
54384;SDS011;40284;52.878;5.998;2023-02-15T09:36:06;70.68;;;44.40;;
54384;SDS011;40284;52.878;5.998;2023-02-15T09:38:39;76.70;;;45.65;;
54384;SDS011;40284;52.878;5.998;2023-02-15T09:43:33;79.43;;;45.63;;
54384;SDS011;40284;52.878;5.998;2023-02-15T09:46:14;83.97;;;49.38;;
54384;SDS011;40284;52.878;5.998;2023-02-15T09:48:43;83.07;;;48.83;;
54384;SDS011;40284;52.878;5.998;2023-02-15T10:04:00;78.18;;;49.30;;
54384;SDS011;40284;52.878;5.998;2023-02-15T10:22:09;71.15;;;43.83;;
54384;SDS011;40284;52.878;5.998;2023-02-15T10:27:15;67.97;;;42.92;;
54384;SDS011;40284;52.878;5.998;2023-02-15T10:32:31;65.47;;;39.83;;
54384;SDS011;40284;52.878;5.998;2023-02-15T10:37:36;59.90;;;39.75;;
54384;SDS011;40284;52.878;5.998;2023-02-15T10:42:58;59.33;;;39.13;;
54384;SDS011;40284;52.878;5.998;2023-02-15T11:08:25;56.80;;;38.67;;
54384;SDS011;40284;52.878;5.998;2023-02-15T11:10:57;56.33;;;37.42;;
54384;SDS011;40284;52.878;5.998;2023-02-15T11:13:26;56.05;;;38.33;;
54384;SDS011;40284;52.878;5.998;2023-02-15T11:15:55;60.83;;;40.30;;
54384;SDS011;40284;52.878;5.998;2023-02-15T11:21:05;57.10;;;38.45;;
54384;SDS011;40284;52.878;5.998;2023-02-15T11:23:33;60.75;;;39.72;;
54384;SDS011;40284;52.878;5.998;2023-02-15T11:26:02;61.63;;;37.70;;
54384;SDS011;40284;52.878;5.998;2023-02-15T11:28:39;60.72;;;39.15;;
54384;SDS011;40284;52.878;5.998;2023-02-15T11:31:13;61.75;;;41.25;;
54384;SDS011;40284;52.878;5.998;2023-02-15T11:33:42;64.95;;;42.70;;
54384;SDS011;40284;52.878;5.998;2023-02-15T11:36:11;59.33;;;39.22;;
54384;SDS011;40284;52.878;5.998;2023-02-15T11:38:41;59.63;;;39.60;;
54384;SDS011;40284;52.878;5.998;2023-02-15T11:43:39;61.17;;;39.10;;
54384;SDS011;40284;52.878;5.998;2023-02-15T11:46:08;56.45;;;36.85;;
54384;SDS011;40284;52.878;5.998;2023-02-15T11:48:36;54.17;;;36.75;;
54384;SDS011;40284;52.878;5.998;2023-02-15T11:51:02;58.22;;;34.25;;
54384;SDS011;40284;52.878;5.998;2023-02-15T11:53:31;50.80;;;33.63;;
54384;SDS011;40284;52.878;5.998;2023-02-15T11:55:57;59.15;;;35.95;;
54384;SDS011;40284;52.878;5.998;2023-02-15T11:58:33;52.58;;;34.42;;
54384;SDS011;40284;52.878;5.998;2023-02-15T12:01:02;48.92;;;33.40;;
54384;SDS011;40284;52.878;5.998;2023-02-15T12:06:02;48.63;;;32.20;;
54384;SDS011;40284;52.878;5.998;2023-02-15T12:08:38;51.65;;;32.50;;
54384;SDS011;40284;52.878;5.998;2023-02-15T12:11:13;50.78;;;32.00;;
54384;SDS011;40284;52.878;5.998;2023-02-15T12:14:03;48.20;;;31.92;;
54384;SDS011;40284;52.878;5.998;2023-02-15T12:16:32;47.22;;;31.92;;
54384;SDS011;40284;52.878;5.998;2023-02-15T12:19:01;53.15;;;34.08;;
54384;SDS011;40284;52.878;5.998;2023-02-15T12:21:29;49.03;;;32.50;;
54384;SDS011;40284;52.878;5.998;2023-02-15T12:23:58;52.70;;;32.13;;
54384;SDS011;40284;52.878;5.998;2023-02-15T12:26:34;44.22;;;32.10;;
54384;SDS011;40284;52.878;5.998;2023-02-15T12:29:01;50.33;;;33.33;;
54384;SDS011;40284;52.878;5.998;2023-02-15T12:31:33;44.17;;;29.33;;
54384;SDS011;40284;52.878;5.998;2023-02-15T12:34:03;47.15;;;32.35;;
54384;SDS011;40284;52.878;5.998;2023-02-15T12:36:40;46.33;;;30.60;;
54384;SDS011;40284;52.878;5.998;2023-02-15T12:41:38;43.30;;;31.00;;
54384;SDS011;40284;52.878;5.998;2023-02-15T12:44:17;45.25;;;30.02;;
54384;SDS011;40284;52.878;5.998;2023-02-15T12:47:05;43.90;;;29.73;;
54384;SDS011;40284;52.878;5.998;2023-02-15T12:49:32;41.70;;;29.30;;
54384;SDS011;40284;52.878;5.998;2023-02-15T12:52:32;47.33;;;31.52;;
54384;SDS011;40284;52.878;5.998;2023-02-15T12:54:51;50.13;;;32.30;;
54384;SDS011;40284;52.878;5.998;2023-02-15T12:57:22;48.45;;;30.98;;
54384;SDS011;40284;52.878;5.998;2023-02-15T13:02:19;50.97;;;32.90;;
54384;SDS011;40284;52.878;5.998;2023-02-15T13:04:50;55.08;;;35.15;;
54384;SDS011;40284;52.878;5.998;2023-02-15T13:07:16;51.28;;;33.80;;
54384;SDS011;40284;52.878;5.998;2023-02-15T13:09:42;48.50;;;32.40;;
54384;SDS011;40284;52.878;5.998;2023-02-15T13:14:35;59.10;;;34.35;;
54384;SDS011;40284;52.878;5.998;2023-02-15T13:17:03;52.63;;;32.17;;
54384;SDS011;40284;52.878;5.998;2023-02-15T13:19:37;51.30;;;32.50;;
54384;SDS011;40284;52.878;5.998;2023-02-15T13:22:10;48.97;;;32.20;;
54384;SDS011;40284;52.878;5.998;2023-02-15T13:24:38;44.73;;;31.83;;
54384;SDS011;40284;52.878;5.998;2023-02-15T13:27:05;50.75;;;33.28;;
54384;SDS011;40284;52.878;5.998;2023-02-15T13:29:33;49.25;;;32.28;;
54384;SDS011;40284;52.878;5.998;2023-02-15T13:32:04;45.53;;;30.65;;
54384;SDS011;40284;52.878;5.998;2023-02-15T13:34:33;48.10;;;30.55;;
54384;SDS011;40284;52.878;5.998;2023-02-15T13:42:20;53.88;;;34.35;;
54384;SDS011;40284;52.878;5.998;2023-02-15T13:47:21;46.78;;;30.77;;
54384;SDS011;40284;52.878;5.998;2023-02-15T13:49:55;49.72;;;33.08;;
54384;SDS011;40284;52.878;5.998;2023-02-15T13:52:24;49.97;;;31.67;;
54384;SDS011;40284;52.878;5.998;2023-02-15T13:57:55;40.95;;;29.48;;
54384;SDS011;40284;52.878;5.998;2023-02-15T14:00:28;45.97;;;31.75;;
54384;SDS011;40284;52.878;5.998;2023-02-15T14:11:21;45.10;;;30.95;;
54384;SDS011;40284;52.878;5.998;2023-02-15T14:16:03;44.10;;;29.38;;
54384;SDS011;40284;52.878;5.998;2023-02-15T14:18:51;45.75;;;29.58;;
54384;SDS011;40284;52.878;5.998;2023-02-15T14:21:25;44.80;;;30.23;;
54384;SDS011;40284;52.878;5.998;2023-02-15T14:24:01;44.28;;;30.73;;
54384;SDS011;40284;52.878;5.998;2023-02-15T14:26:53;47.22;;;30.27;;
54384;SDS011;40284;52.878;5.998;2023-02-15T14:29:28;44.90;;;30.73;;
54384;SDS011;40284;52.878;5.998;2023-02-15T14:31:57;44.95;;;30.95;;
54384;SDS011;40284;52.878;5.998;2023-02-15T14:34:27;44.47;;;30.60;;
54384;SDS011;40284;52.878;5.998;2023-02-15T14:36:56;46.70;;;31.38;;
54384;SDS011;40284;52.878;5.998;2023-02-15T14:39:35;42.47;;;30.42;;
54384;SDS011;40284;52.878;5.998;2023-02-15T14:42:25;48.17;;;32.15;;
54384;SDS011;40284;52.878;5.998;2023-02-15T14:47:36;46.58;;;30.65;;
54384;SDS011;40284;52.878;5.998;2023-02-15T14:53:49;43.88;;;29.63;;
54384;SDS011;40284;52.878;5.998;2023-02-15T14:59:21;45.78;;;28.25;;
54384;SDS011;40284;52.878;5.998;2023-02-15T15:03:55;42.20;;;27.20;;
54384;SDS011;40284;52.878;5.998;2023-02-15T15:06:26;45.58;;;28.50;;
54384;SDS011;40284;52.878;5.998;2023-02-15T15:08:55;47.42;;;29.42;;
54384;SDS011;40284;52.878;5.998;2023-02-15T15:13:59;43.35;;;29.05;;
54384;SDS011;40284;52.878;5.998;2023-02-15T15:19:02;40.50;;;30.17;;
54384;SDS011;40284;52.878;5.998;2023-02-15T15:29:51;48.70;;;30.70;;
54384;SDS011;40284;52.878;5.998;2023-02-15T15:32:18;48.17;;;32.15;;
54384;SDS011;40284;52.878;5.998;2023-02-15T15:35:00;51.90;;;33.80;;
54384;SDS011;40284;52.878;5.998;2023-02-15T15:45:46;43.70;;;32.38;;
54384;SDS011;40284;52.878;5.998;2023-02-15T15:48:26;50.50;;;35.08;;
54384;SDS011;40284;52.878;5.998;2023-02-15T15:50:53;48.65;;;33.25;;
54384;SDS011;40284;52.878;5.998;2023-02-15T15:53:20;51.00;;;33.70;;
54384;SDS011;40284;52.878;5.998;2023-02-15T15:55:47;49.17;;;33.30;;
54384;SDS011;40284;52.878;5.998;2023-02-15T15:58:15;51.95;;;34.90;;
54384;SDS011;40284;52.878;5.998;2023-02-15T16:00:47;58.00;;;36.25;;
54384;SDS011;40284;52.878;5.998;2023-02-15T16:03:20;54.03;;;35.20;;
54384;SDS011;40284;52.878;5.998;2023-02-15T16:05:47;55.05;;;34.40;;
54384;SDS011;40284;52.878;5.998;2023-02-15T16:08:38;61.20;;;37.90;;
54384;SDS011;40284;52.878;5.998;2023-02-15T16:11:10;53.47;;;36.20;;
54384;SDS011;40284;52.878;5.998;2023-02-15T16:13:36;60.55;;;37.65;;
54384;SDS011;40284;52.878;5.998;2023-02-15T16:16:02;65.82;;;39.15;;
54384;SDS011;40284;52.878;5.998;2023-02-15T16:18:28;59.47;;;36.95;;
54384;SDS011;40284;52.878;5.998;2023-02-15T16:20:57;63.22;;;37.33;;
54384;SDS011;40284;52.878;5.998;2023-02-15T16:23:30;61.67;;;37.35;;
54384;SDS011;40284;52.878;5.998;2023-02-15T16:26:05;58.97;;;37.65;;
54384;SDS011;40284;52.878;5.998;2023-02-15T16:28:35;55.00;;;36.00;;
54384;SDS011;40284;52.878;5.998;2023-02-15T16:31:11;59.75;;;39.70;;
54384;SDS011;40284;52.878;5.998;2023-02-15T16:33:38;65.18;;;39.50;;
54384;SDS011;40284;52.878;5.998;2023-02-15T16:36:05;63.03;;;40.22;;
54384;SDS011;40284;52.878;5.998;2023-02-15T16:41:08;69.68;;;42.05;;
54384;SDS011;40284;52.878;5.998;2023-02-15T16:43:36;73.95;;;44.63;;
54384;SDS011;40284;52.878;5.998;2023-02-15T16:46:03;74.18;;;44.45;;
54384;SDS011;40284;52.878;5.998;2023-02-15T16:48:30;77.70;;;46.72;;
54384;SDS011;40284;52.878;5.998;2023-02-15T16:50:57;80.85;;;48.35;;
54384;SDS011;40284;52.878;5.998;2023-02-15T16:53:25;84.93;;;48.90;;
54384;SDS011;40284;52.878;5.998;2023-02-15T16:55:53;77.80;;;44.65;;
54384;SDS011;40284;52.878;5.998;2023-02-15T16:58:23;74.03;;;43.88;;
54384;SDS011;40284;52.878;5.998;2023-02-15T17:00:54;70.93;;;43.47;;
54384;SDS011;40284;52.878;5.998;2023-02-15T17:03:22;67.85;;;40.58;;
54384;SDS011;40284;52.878;5.998;2023-02-15T17:05:50;71.32;;;42.22;;
54384;SDS011;40284;52.878;5.998;2023-02-15T17:11:05;64.70;;;40.05;;
54384;SDS011;40284;52.878;5.998;2023-02-15T17:13:29;67.03;;;41.33;;
54384;SDS011;40284;52.878;5.998;2023-02-15T17:18:45;64.13;;;41.42;;
54384;SDS011;40284;52.878;5.998;2023-02-15T17:21:12;63.97;;;42.67;;
54384;SDS011;40284;52.878;5.998;2023-02-15T17:26:38;64.60;;;42.22;;
54384;SDS011;40284;52.878;5.998;2023-02-15T17:28:59;63.20;;;40.03;;
54384;SDS011;40284;52.878;5.998;2023-02-15T17:31:27;65.85;;;39.85;;
54384;SDS011;40284;52.878;5.998;2023-02-15T17:33:56;65.03;;;41.80;;
54384;SDS011;40284;52.878;5.998;2023-02-15T17:36:24;65.88;;;40.15;;